sensor_id;sensor_type;location;lat;lon;timestamp;P1;durP1;ratioP1;P2;durP2;ratioP2
60859;SDS011;46694;54.382;9.708;2022-09-02T00:00:18;5.30;;;1.00;;
60859;SDS011;46694;54.382;9.708;2022-09-02T00:02:58;5.90;;;1.07;;
60859;SDS011;46694;54.382;9.708;2022-09-02T00:05:37;12.60;;;1.17;;
60859;SDS011;46694;54.382;9.708;2022-09-02T00:08:17;6.13;;;1.30;;
60859;SDS011;46694;54.382;9.708;2022-09-02T00:10:59;6.80;;;1.37;;
60859;SDS011;46694;54.382;9.708;2022-09-02T00:13:41;10.27;;;1.43;;
60859;SDS011;46694;54.382;9.708;2022-09-02T00:16:21;6.77;;;1.00;;
60859;SDS011;46694;54.382;9.708;2022-09-02T00:19:03;8.77;;;1.27;;
60859;SDS011;46694;54.382;9.708;2022-09-02T00:21:43;9.53;;;1.67;;
60859;SDS011;46694;54.382;9.708;2022-09-02T00:24:23;6.40;;;1.20;;
60859;SDS011;46694;54.382;9.708;2022-09-02T00:27:03;5.90;;;1.20;;
60859;SDS011;46694;54.382;9.708;2022-09-02T00:29:43;6.10;;;1.30;;
60859;SDS011;46694;54.382;9.708;2022-09-02T00:32:23;6.33;;;1.40;;
60859;SDS011;46694;54.382;9.708;2022-09-02T00:35:02;7.80;;;1.30;;
60859;SDS011;46694;54.382;9.708;2022-09-02T00:37:43;6.40;;;1.27;;
60859;SDS011;46694;54.382;9.708;2022-09-02T00:40:23;6.30;;;1.07;;
60859;SDS011;46694;54.382;9.708;2022-09-02T00:43:07;12.90;;;1.40;;
60859;SDS011;46694;54.382;9.708;2022-09-02T00:45:46;5.40;;;1.00;;
60859;SDS011;46694;54.382;9.708;2022-09-02T00:48:26;6.60;;;1.40;;
60859;SDS011;46694;54.382;9.708;2022-09-02T00:51:07;12.23;;;1.60;;
60859;SDS011;46694;54.382;9.708;2022-09-02T00:53:47;8.13;;;1.57;;
60859;SDS011;46694;54.382;9.708;2022-09-02T00:56:28;6.80;;;1.17;;
60859;SDS011;46694;54.382;9.708;2022-09-02T00:59:12;6.60;;;1.60;;
60859;SDS011;46694;54.382;9.708;2022-09-02T01:02:00;8.50;;;1.67;;
60859;SDS011;46694;54.382;9.708;2022-09-02T01:04:40;5.77;;;1.30;;
60859;SDS011;46694;54.382;9.708;2022-09-02T01:07:21;5.17;;;1.30;;
60859;SDS011;46694;54.382;9.708;2022-09-02T01:10:08;5.67;;;1.33;;
60859;SDS011;46694;54.382;9.708;2022-09-02T01:12:56;5.23;;;1.40;;
60859;SDS011;46694;54.382;9.708;2022-09-02T01:15:42;4.27;;;1.00;;
60859;SDS011;46694;54.382;9.708;2022-09-02T01:18:26;6.53;;;1.70;;
60859;SDS011;46694;54.382;9.708;2022-09-02T01:21:08;4.40;;;0.80;;
60859;SDS011;46694;54.382;9.708;2022-09-02T01:23:49;5.83;;;1.10;;
60859;SDS011;46694;54.382;9.708;2022-09-02T01:26:29;3.83;;;1.20;;
60859;SDS011;46694;54.382;9.708;2022-09-02T01:29:10;4.13;;;1.20;;
60859;SDS011;46694;54.382;9.708;2022-09-02T01:31:49;5.80;;;1.70;;
60859;SDS011;46694;54.382;9.708;2022-09-02T01:34:29;2.40;;;1.03;;
60859;SDS011;46694;54.382;9.708;2022-09-02T01:37:09;2.73;;;1.20;;
60859;SDS011;46694;54.382;9.708;2022-09-02T01:39:49;4.53;;;1.10;;
60859;SDS011;46694;54.382;9.708;2022-09-02T01:42:29;5.63;;;1.70;;
60859;SDS011;46694;54.382;9.708;2022-09-02T01:45:10;4.27;;;1.33;;
60859;SDS011;46694;54.382;9.708;2022-09-02T01:47:50;4.27;;;1.67;;
60859;SDS011;46694;54.382;9.708;2022-09-02T01:50:30;3.63;;;0.93;;
60859;SDS011;46694;54.382;9.708;2022-09-02T01:53:10;3.10;;;1.23;;
60859;SDS011;46694;54.382;9.708;2022-09-02T01:55:50;4.23;;;1.20;;
60859;SDS011;46694;54.382;9.708;2022-09-02T01:58:29;4.13;;;1.50;;
60859;SDS011;46694;54.382;9.708;2022-09-02T02:01:09;3.57;;;1.30;;
60859;SDS011;46694;54.382;9.708;2022-09-02T02:03:49;2.40;;;1.17;;
60859;SDS011;46694;54.382;9.708;2022-09-02T02:06:29;2.33;;;1.07;;
60859;SDS011;46694;54.382;9.708;2022-09-02T02:09:10;3.87;;;0.93;;
60859;SDS011;46694;54.382;9.708;2022-09-02T02:11:51;4.03;;;1.37;;
60859;SDS011;46694;54.382;9.708;2022-09-02T02:14:31;3.40;;;1.03;;
60859;SDS011;46694;54.382;9.708;2022-09-02T02:17:10;3.20;;;1.33;;
60859;SDS011;46694;54.382;9.708;2022-09-02T02:19:50;3.80;;;1.60;;
60859;SDS011;46694;54.382;9.708;2022-09-02T02:22:30;3.53;;;1.10;;
60859;SDS011;46694;54.382;9.708;2022-09-02T02:25:10;3.40;;;1.27;;
60859;SDS011;46694;54.382;9.708;2022-09-02T02:27:52;3.47;;;1.23;;
60859;SDS011;46694;54.382;9.708;2022-09-02T02:30:32;2.87;;;1.03;;
60859;SDS011;46694;54.382;9.708;2022-09-02T02:33:12;14.10;;;1.27;;
60859;SDS011;46694;54.382;9.708;2022-09-02T02:35:51;3.03;;;1.30;;
60859;SDS011;46694;54.382;9.708;2022-09-02T02:38:34;3.70;;;1.23;;
60859;SDS011;46694;54.382;9.708;2022-09-02T02:41:16;6.30;;;1.73;;
60859;SDS011;46694;54.382;9.708;2022-09-02T02:43:55;2.90;;;1.33;;
60859;SDS011;46694;54.382;9.708;2022-09-02T02:46:35;4.47;;;1.73;;
60859;SDS011;46694;54.382;9.708;2022-09-02T02:49:15;3.60;;;1.77;;
60859;SDS011;46694;54.382;9.708;2022-09-02T02:51:54;4.73;;;1.80;;
60859;SDS011;46694;54.382;9.708;2022-09-02T02:54:34;3.50;;;2.00;;
60859;SDS011;46694;54.382;9.708;2022-09-02T02:57:14;10.97;;;2.20;;
60859;SDS011;46694;54.382;9.708;2022-09-02T02:59:54;6.23;;;2.23;;
60859;SDS011;46694;54.382;9.708;2022-09-02T03:02:35;4.10;;;2.20;;
60859;SDS011;46694;54.382;9.708;2022-09-02T03:05:15;5.77;;;2.57;;
60859;SDS011;46694;54.382;9.708;2022-09-02T03:07:55;4.33;;;1.90;;
60859;SDS011;46694;54.382;9.708;2022-09-02T03:10:35;2.90;;;1.97;;
60859;SDS011;46694;54.382;9.708;2022-09-02T03:13:16;2.93;;;1.60;;
60859;SDS011;46694;54.382;9.708;2022-09-02T03:15:56;2.80;;;1.60;;
60859;SDS011;46694;54.382;9.708;2022-09-02T03:18:35;3.63;;;1.60;;
60859;SDS011;46694;54.382;9.708;2022-09-02T03:21:15;2.70;;;1.80;;
60859;SDS011;46694;54.382;9.708;2022-09-02T03:23:55;5.83;;;1.77;;
60859;SDS011;46694;54.382;9.708;2022-09-02T03:26:35;6.27;;;2.03;;
60859;SDS011;46694;54.382;9.708;2022-09-02T03:29:16;1.40;;;1.30;;
60859;SDS011;46694;54.382;9.708;2022-09-02T03:31:55;4.40;;;1.73;;
60859;SDS011;46694;54.382;9.708;2022-09-02T03:34:35;4.17;;;1.50;;
60859;SDS011;46694;54.382;9.708;2022-09-02T03:37:15;4.03;;;1.43;;
60859;SDS011;46694;54.382;9.708;2022-09-02T03:39:55;5.00;;;1.73;;
60859;SDS011;46694;54.382;9.708;2022-09-02T03:42:34;2.53;;;1.87;;
60859;SDS011;46694;54.382;9.708;2022-09-02T03:45:14;2.03;;;1.80;;
60859;SDS011;46694;54.382;9.708;2022-09-02T03:47:55;1.53;;;1.30;;
60859;SDS011;46694;54.382;9.708;2022-09-02T03:50:38;2.63;;;1.80;;
60859;SDS011;46694;54.382;9.708;2022-09-02T03:53:19;2.07;;;1.47;;
60859;SDS011;46694;54.382;9.708;2022-09-02T03:56:03;1.53;;;1.43;;
60859;SDS011;46694;54.382;9.708;2022-09-02T03:58:45;4.80;;;1.60;;
60859;SDS011;46694;54.382;9.708;2022-09-02T04:01:27;2.00;;;1.90;;
60859;SDS011;46694;54.382;9.708;2022-09-02T04:04:07;1.40;;;1.30;;
60859;SDS011;46694;54.382;9.708;2022-09-02T04:06:47;3.03;;;1.73;;
60859;SDS011;46694;54.382;9.708;2022-09-02T04:09:26;2.00;;;1.80;;
60859;SDS011;46694;54.382;9.708;2022-09-02T04:12:07;2.60;;;2.37;;
60859;SDS011;46694;54.382;9.708;2022-09-02T04:14:47;5.73;;;2.50;;
60859;SDS011;46694;54.382;9.708;2022-09-02T04:17:27;2.60;;;2.40;;
60859;SDS011;46694;54.382;9.708;2022-09-02T04:20:07;6.10;;;3.23;;
60859;SDS011;46694;54.382;9.708;2022-09-02T04:22:50;3.40;;;2.70;;
60859;SDS011;46694;54.382;9.708;2022-09-02T04:25:30;4.20;;;3.10;;
60859;SDS011;46694;54.382;9.708;2022-09-02T04:28:09;3.60;;;3.10;;
60859;SDS011;46694;54.382;9.708;2022-09-02T04:30:50;3.87;;;3.10;;
60859;SDS011;46694;54.382;9.708;2022-09-02T04:33:30;7.10;;;3.57;;
60859;SDS011;46694;54.382;9.708;2022-09-02T04:36:11;6.20;;;3.00;;
60859;SDS011;46694;54.382;9.708;2022-09-02T04:38:53;5.90;;;2.90;;
60859;SDS011;46694;54.382;9.708;2022-09-02T04:41:34;5.47;;;3.57;;
60859;SDS011;46694;54.382;9.708;2022-09-02T04:44:14;5.00;;;4.00;;
60859;SDS011;46694;54.382;9.708;2022-09-02T04:46:53;10.33;;;3.70;;
60859;SDS011;46694;54.382;9.708;2022-09-02T04:49:33;4.27;;;3.50;;
60859;SDS011;46694;54.382;9.708;2022-09-02T04:52:13;4.87;;;3.70;;
60859;SDS011;46694;54.382;9.708;2022-09-02T04:54:52;5.90;;;3.33;;
60859;SDS011;46694;54.382;9.708;2022-09-02T04:57:32;4.30;;;3.90;;
60859;SDS011;46694;54.382;9.708;2022-09-02T05:00:12;4.93;;;3.60;;
60859;SDS011;46694;54.382;9.708;2022-09-02T05:02:53;3.73;;;3.30;;
60859;SDS011;46694;54.382;9.708;2022-09-02T05:05:34;3.17;;;2.87;;
60859;SDS011;46694;54.382;9.708;2022-09-02T05:08:13;5.70;;;3.20;;
60859;SDS011;46694;54.382;9.708;2022-09-02T05:10:53;3.83;;;2.50;;
60859;SDS011;46694;54.382;9.708;2022-09-02T05:13:32;2.43;;;2.23;;
60859;SDS011;46694;54.382;9.708;2022-09-02T05:16:14;3.30;;;2.50;;
60859;SDS011;46694;54.382;9.708;2022-09-02T05:18:55;3.03;;;2.67;;
60859;SDS011;46694;54.382;9.708;2022-09-02T05:21:42;6.30;;;2.53;;
60859;SDS011;46694;54.382;9.708;2022-09-02T05:24:22;2.43;;;2.13;;
60859;SDS011;46694;54.382;9.708;2022-09-02T05:27:03;4.10;;;2.07;;
60859;SDS011;46694;54.382;9.708;2022-09-02T05:29:42;2.87;;;2.17;;
60859;SDS011;46694;54.382;9.708;2022-09-02T05:32:22;10.00;;;3.20;;
60859;SDS011;46694;54.382;9.708;2022-09-02T05:35:02;12.33;;;2.03;;
60859;SDS011;46694;54.382;9.708;2022-09-02T05:37:41;6.07;;;1.93;;
60859;SDS011;46694;54.382;9.708;2022-09-02T05:40:21;4.20;;;2.37;;
60859;SDS011;46694;54.382;9.708;2022-09-02T05:43:01;3.20;;;1.90;;
60859;SDS011;46694;54.382;9.708;2022-09-02T05:45:41;8.97;;;1.80;;
60859;SDS011;46694;54.382;9.708;2022-09-02T05:48:20;1.80;;;1.33;;
60859;SDS011;46694;54.382;9.708;2022-09-02T05:51:18;2.30;;;1.30;;
60859;SDS011;46694;54.382;9.708;2022-09-02T05:53:59;1.83;;;1.50;;
60859;SDS011;46694;54.382;9.708;2022-09-02T05:56:40;1.60;;;1.50;;
60859;SDS011;46694;54.382;9.708;2022-09-02T05:59:22;3.00;;;1.50;;
60859;SDS011;46694;54.382;9.708;2022-09-02T06:02:05;2.37;;;1.57;;
60859;SDS011;46694;54.382;9.708;2022-09-02T06:04:47;1.67;;;1.53;;
60859;SDS011;46694;54.382;9.708;2022-09-02T06:07:29;2.17;;;1.27;;
60859;SDS011;46694;54.382;9.708;2022-09-02T06:10:09;3.90;;;1.40;;
60859;SDS011;46694;54.382;9.708;2022-09-02T06:12:48;6.73;;;1.63;;
60859;SDS011;46694;54.382;9.708;2022-09-02T06:15:28;2.90;;;1.40;;
60859;SDS011;46694;54.382;9.708;2022-09-02T06:18:09;9.53;;;1.93;;
60859;SDS011;46694;54.382;9.708;2022-09-02T06:20:49;6.60;;;1.97;;
60859;SDS011;46694;54.382;9.708;2022-09-02T06:23:29;5.27;;;1.40;;
60859;SDS011;46694;54.382;9.708;2022-09-02T06:26:09;4.93;;;2.00;;
60859;SDS011;46694;54.382;9.708;2022-09-02T06:28:50;4.47;;;1.03;;
60859;SDS011;46694;54.382;9.708;2022-09-02T06:31:30;12.00;;;1.63;;
60859;SDS011;46694;54.382;9.708;2022-09-02T06:34:10;6.57;;;1.23;;
60859;SDS011;46694;54.382;9.708;2022-09-02T06:36:53;6.00;;;1.20;;
60859;SDS011;46694;54.382;9.708;2022-09-02T06:39:35;5.80;;;1.43;;
60859;SDS011;46694;54.382;9.708;2022-09-02T06:42:15;7.83;;;1.20;;
60859;SDS011;46694;54.382;9.708;2022-09-02T06:44:55;11.30;;;1.30;;
60859;SDS011;46694;54.382;9.708;2022-09-02T06:47:35;6.87;;;1.30;;
60859;SDS011;46694;54.382;9.708;2022-09-02T06:50:14;8.67;;;1.37;;
60859;SDS011;46694;54.382;9.708;2022-09-02T06:52:54;9.23;;;1.70;;
60859;SDS011;46694;54.382;9.708;2022-09-02T06:55:38;7.40;;;1.90;;
60859;SDS011;46694;54.382;9.708;2022-09-02T06:58:20;7.43;;;1.20;;
60859;SDS011;46694;54.382;9.708;2022-09-02T07:01:00;8.50;;;1.53;;
60859;SDS011;46694;54.382;9.708;2022-09-02T07:03:39;9.27;;;1.63;;
60859;SDS011;46694;54.382;9.708;2022-09-02T07:06:42;7.87;;;1.20;;
60859;SDS011;46694;54.382;9.708;2022-09-02T07:09:27;6.60;;;1.70;;
60859;SDS011;46694;54.382;9.708;2022-09-02T07:12:08;7.43;;;1.10;;
60859;SDS011;46694;54.382;9.708;2022-09-02T07:14:48;6.40;;;1.40;;
60859;SDS011;46694;54.382;9.708;2022-09-02T07:17:28;6.13;;;1.33;;
60859;SDS011;46694;54.382;9.708;2022-09-02T07:20:07;5.20;;;1.17;;
60859;SDS011;46694;54.382;9.708;2022-09-02T07:22:48;4.40;;;1.10;;
60859;SDS011;46694;54.382;9.708;2022-09-02T07:25:28;4.30;;;1.13;;
60859;SDS011;46694;54.382;9.708;2022-09-02T07:28:07;3.30;;;0.90;;
60859;SDS011;46694;54.382;9.708;2022-09-02T07:30:49;4.90;;;1.10;;
60859;SDS011;46694;54.382;9.708;2022-09-02T07:33:31;5.70;;;1.03;;
60859;SDS011;46694;54.382;9.708;2022-09-02T07:36:12;1.40;;;0.70;;
60859;SDS011;46694;54.382;9.708;2022-09-02T07:38:52;1.40;;;0.70;;
60859;SDS011;46694;54.382;9.708;2022-09-02T07:41:32;3.40;;;1.00;;
60859;SDS011;46694;54.382;9.708;2022-09-02T07:44:13;1.00;;;0.70;;
60859;SDS011;46694;54.382;9.708;2022-09-02T07:46:54;2.00;;;0.83;;
60859;SDS011;46694;54.382;9.708;2022-09-02T07:49:33;1.93;;;0.80;;
60859;SDS011;46694;54.382;9.708;2022-09-02T07:52:13;0.97;;;0.60;;
60859;SDS011;46694;54.382;9.708;2022-09-02T07:54:54;1.47;;;0.70;;
60859;SDS011;46694;54.382;9.708;2022-09-02T07:57:34;1.10;;;0.70;;
60859;SDS011;46694;54.382;9.708;2022-09-02T08:00:14;1.00;;;0.90;;
60859;SDS011;46694;54.382;9.708;2022-09-02T08:02:57;2.20;;;0.90;;
60859;SDS011;46694;54.382;9.708;2022-09-02T08:05:38;1.50;;;0.90;;
60859;SDS011;46694;54.382;9.708;2022-09-02T08:08:19;4.10;;;0.87;;
60859;SDS011;46694;54.382;9.708;2022-09-02T08:10:59;2.73;;;0.80;;
60859;SDS011;46694;54.382;9.708;2022-09-02T08:13:39;2.20;;;0.87;;
60859;SDS011;46694;54.382;9.708;2022-09-02T08:16:18;0.90;;;0.63;;
60859;SDS011;46694;54.382;9.708;2022-09-02T08:18:58;1.33;;;0.60;;
60859;SDS011;46694;54.382;9.708;2022-09-02T08:21:38;0.77;;;0.70;;
60859;SDS011;46694;54.382;9.708;2022-09-02T08:24:18;0.90;;;0.70;;
60859;SDS011;46694;54.382;9.708;2022-09-02T08:26:58;1.03;;;0.50;;
60859;SDS011;46694;54.382;9.708;2022-09-02T08:29:37;0.63;;;0.40;;
60859;SDS011;46694;54.382;9.708;2022-09-02T08:32:17;1.10;;;0.50;;
60859;SDS011;46694;54.382;9.708;2022-09-02T08:34:58;2.80;;;0.63;;
60859;SDS011;46694;54.382;9.708;2022-09-02T08:37:40;6.63;;;0.70;;
60859;SDS011;46694;54.382;9.708;2022-09-02T08:40:21;2.03;;;0.60;;
60859;SDS011;46694;54.382;9.708;2022-09-02T08:43:04;3.90;;;0.50;;
60859;SDS011;46694;54.382;9.708;2022-09-02T08:46:02;1.10;;;0.50;;
60859;SDS011;46694;54.382;9.708;2022-09-02T08:49:02;0.67;;;0.50;;
60859;SDS011;46694;54.382;9.708;2022-09-02T08:51:48;1.17;;;0.60;;
60859;SDS011;46694;54.382;9.708;2022-09-02T08:57:40;1.87;;;0.60;;
60859;SDS011;46694;54.382;9.708;2022-09-02T09:00:22;1.10;;;0.70;;
60859;SDS011;46694;54.382;9.708;2022-09-02T09:03:16;2.30;;;0.60;;
60859;SDS011;46694;54.382;9.708;2022-09-02T09:06:50;1.10;;;0.90;;
60859;SDS011;46694;54.382;9.708;2022-09-02T09:22:35;5.70;;;0.60;;
60859;SDS011;46694;54.382;9.708;2022-09-02T09:25:17;5.40;;;0.67;;
60859;SDS011;46694;54.382;9.708;2022-09-02T09:27:57;1.90;;;0.53;;
60859;SDS011;46694;54.382;9.708;2022-09-02T09:30:38;0.70;;;0.63;;
60859;SDS011;46694;54.382;9.708;2022-09-02T09:33:18;1.10;;;0.70;;
60859;SDS011;46694;54.382;9.708;2022-09-02T09:39:51;1.00;;;0.83;;
60859;SDS011;46694;54.382;9.708;2022-09-02T09:42:32;4.00;;;0.70;;
60859;SDS011;46694;54.382;9.708;2022-09-02T09:51:10;1.23;;;0.80;;
60859;SDS011;46694;54.382;9.708;2022-09-02T09:53:51;1.03;;;0.67;;
60859;SDS011;46694;54.382;9.708;2022-09-02T09:56:31;1.63;;;0.90;;
60859;SDS011;46694;54.382;9.708;2022-09-02T10:02:25;0.80;;;0.50;;
60859;SDS011;46694;54.382;9.708;2022-09-02T10:05:18;1.60;;;0.50;;
60859;SDS011;46694;54.382;9.708;2022-09-02T10:08:17;1.37;;;0.50;;
60859;SDS011;46694;54.382;9.708;2022-09-02T10:11:18;0.70;;;0.60;;
60859;SDS011;46694;54.382;9.708;2022-09-02T10:14:05;8.93;;;0.70;;
60859;SDS011;46694;54.382;9.708;2022-09-02T10:23:14;1.90;;;0.70;;
60859;SDS011;46694;54.382;9.708;2022-09-02T10:29:38;3.60;;;0.53;;
60859;SDS011;46694;54.382;9.708;2022-09-02T10:47:17;3.23;;;1.00;;
60859;SDS011;46694;54.382;9.708;2022-09-02T10:50:17;2.80;;;0.80;;
60859;SDS011;46694;54.382;9.708;2022-09-02T10:53:24;0.77;;;0.77;;
60859;SDS011;46694;54.382;9.708;2022-09-02T10:56:20;0.80;;;0.50;;
60859;SDS011;46694;54.382;9.708;2022-09-02T10:59:09;0.70;;;0.60;;
60859;SDS011;46694;54.382;9.708;2022-09-02T11:01:55;1.80;;;0.50;;
60859;SDS011;46694;54.382;9.708;2022-09-02T11:04:59;1.53;;;0.50;;
60859;SDS011;46694;54.382;9.708;2022-09-02T11:10:53;0.70;;;0.50;;
60859;SDS011;46694;54.382;9.708;2022-09-02T11:23:39;1.23;;;0.60;;
60859;SDS011;46694;54.382;9.708;2022-09-02T11:26:31;4.83;;;0.67;;
60859;SDS011;46694;54.382;9.708;2022-09-02T11:35:45;1.33;;;0.50;;
60859;SDS011;46694;54.382;9.708;2022-09-02T11:38:47;0.90;;;0.60;;
60859;SDS011;46694;54.382;9.708;2022-09-02T11:41:42;3.93;;;0.60;;
60859;SDS011;46694;54.382;9.708;2022-09-02T11:44:51;3.23;;;0.50;;
60859;SDS011;46694;54.382;9.708;2022-09-02T11:47:58;1.03;;;0.70;;
60859;SDS011;46694;54.382;9.708;2022-09-02T11:54:09;3.03;;;0.60;;
60859;SDS011;46694;54.382;9.708;2022-09-02T11:56:56;1.37;;;0.67;;
60859;SDS011;46694;54.382;9.708;2022-09-02T12:00:01;2.60;;;0.60;;
60859;SDS011;46694;54.382;9.708;2022-09-02T12:02:48;1.80;;;0.43;;
60859;SDS011;46694;54.382;9.708;2022-09-02T12:17:04;0.67;;;0.53;;
60859;SDS011;46694;54.382;9.708;2022-09-02T12:19:45;1.47;;;0.60;;
60859;SDS011;46694;54.382;9.708;2022-09-02T12:22:31;0.60;;;0.40;;
60859;SDS011;46694;54.382;9.708;2022-09-02T12:28:21;1.57;;;0.63;;
60859;SDS011;46694;54.382;9.708;2022-09-02T12:31:08;3.33;;;0.60;;
60859;SDS011;46694;54.382;9.708;2022-09-02T12:37:03;1.17;;;0.50;;
60859;SDS011;46694;54.382;9.708;2022-09-02T12:42:27;0.90;;;0.70;;
60859;SDS011;46694;54.382;9.708;2022-09-02T12:45:24;1.40;;;0.50;;
60859;SDS011;46694;54.382;9.708;2022-09-02T12:48:07;1.70;;;1.07;;
60859;SDS011;46694;54.382;9.708;2022-09-02T12:50:58;0.60;;;0.40;;
60859;SDS011;46694;54.382;9.708;2022-09-02T12:53:41;1.77;;;0.50;;
60859;SDS011;46694;54.382;9.708;2022-09-02T12:56:27;6.83;;;0.60;;
60859;SDS011;46694;54.382;9.708;2022-09-02T12:59:06;9.90;;;0.77;;
60859;SDS011;46694;54.382;9.708;2022-09-02T13:34:04;0.70;;;0.50;;
60859;SDS011;46694;54.382;9.708;2022-09-02T13:36:49;1.93;;;0.60;;
60859;SDS011;46694;54.382;9.708;2022-09-02T13:39:29;1.10;;;0.70;;
60859;SDS011;46694;54.382;9.708;2022-09-02T13:42:15;1.27;;;0.50;;
60859;SDS011;46694;54.382;9.708;2022-09-02T13:45:13;6.30;;;0.50;;
60859;SDS011;46694;54.382;9.708;2022-09-02T13:47:57;1.83;;;0.70;;
60859;SDS011;46694;54.382;9.708;2022-09-02T13:50:42;1.43;;;0.50;;
60859;SDS011;46694;54.382;9.708;2022-09-02T13:53:31;0.80;;;0.60;;
60859;SDS011;46694;54.382;9.708;2022-09-02T13:56:21;2.60;;;0.60;;
60859;SDS011;46694;54.382;9.708;2022-09-02T13:59:03;2.00;;;0.50;;
60859;SDS011;46694;54.382;9.708;2022-09-02T14:01:42;0.90;;;0.80;;
60859;SDS011;46694;54.382;9.708;2022-09-02T14:04:22;6.30;;;0.80;;
60859;SDS011;46694;54.382;9.708;2022-09-02T14:07:01;1.13;;;0.70;;
60859;SDS011;46694;54.382;9.708;2022-09-02T14:09:45;0.60;;;0.47;;
60859;SDS011;46694;54.382;9.708;2022-09-02T14:12:26;1.60;;;0.60;;
60859;SDS011;46694;54.382;9.708;2022-09-02T14:15:11;3.13;;;0.77;;
60859;SDS011;46694;54.382;9.708;2022-09-02T14:21:01;0.93;;;0.57;;
60859;SDS011;46694;54.382;9.708;2022-09-02T14:23:55;1.00;;;0.50;;
60859;SDS011;46694;54.382;9.708;2022-09-02T14:26:40;1.10;;;0.70;;
60859;SDS011;46694;54.382;9.708;2022-09-02T14:29:22;4.23;;;0.60;;
60859;SDS011;46694;54.382;9.708;2022-09-02T14:37:58;3.67;;;1.00;;
60859;SDS011;46694;54.382;9.708;2022-09-02T14:40:38;0.97;;;0.50;;
60859;SDS011;46694;54.382;9.708;2022-09-02T14:43:22;2.47;;;0.50;;
60859;SDS011;46694;54.382;9.708;2022-09-02T14:46:03;0.77;;;0.40;;
60859;SDS011;46694;54.382;9.708;2022-09-02T14:48:44;2.60;;;0.50;;
60859;SDS011;46694;54.382;9.708;2022-09-02T14:57:29;3.37;;;0.70;;
60859;SDS011;46694;54.382;9.708;2022-09-02T15:00:12;1.60;;;0.53;;
60859;SDS011;46694;54.382;9.708;2022-09-02T15:02:54;2.50;;;1.07;;
60859;SDS011;46694;54.382;9.708;2022-09-02T15:05:34;1.00;;;0.60;;
60859;SDS011;46694;54.382;9.708;2022-09-02T15:08:14;1.30;;;0.70;;
60859;SDS011;46694;54.382;9.708;2022-09-02T15:10:57;1.00;;;0.60;;
60859;SDS011;46694;54.382;9.708;2022-09-02T15:13:38;4.73;;;0.90;;
60859;SDS011;46694;54.382;9.708;2022-09-02T15:16:18;2.23;;;0.70;;
60859;SDS011;46694;54.382;9.708;2022-09-02T15:18:57;6.10;;;0.67;;
60859;SDS011;46694;54.382;9.708;2022-09-02T15:21:37;0.73;;;0.50;;
60859;SDS011;46694;54.382;9.708;2022-09-02T15:24:18;2.20;;;0.87;;
60859;SDS011;46694;54.382;9.708;2022-09-02T15:26:58;2.77;;;0.80;;
60859;SDS011;46694;54.382;9.708;2022-09-02T15:29:38;2.70;;;0.80;;
60859;SDS011;46694;54.382;9.708;2022-09-02T15:32:17;3.17;;;0.60;;
60859;SDS011;46694;54.382;9.708;2022-09-02T15:34:57;1.27;;;0.73;;
60859;SDS011;46694;54.382;9.708;2022-09-02T15:37:37;9.30;;;0.90;;
60859;SDS011;46694;54.382;9.708;2022-09-02T15:40:16;0.70;;;0.50;;
60859;SDS011;46694;54.382;9.708;2022-09-02T15:42:56;1.30;;;0.70;;
60859;SDS011;46694;54.382;9.708;2022-09-02T15:45:39;3.13;;;0.60;;
60859;SDS011;46694;54.382;9.708;2022-09-02T15:48:26;0.80;;;0.60;;
60859;SDS011;46694;54.382;9.708;2022-09-02T15:51:10;1.90;;;0.80;;
60859;SDS011;46694;54.382;9.708;2022-09-02T15:53:55;3.87;;;0.47;;
60859;SDS011;46694;54.382;9.708;2022-09-02T15:56:40;3.33;;;0.83;;
60859;SDS011;46694;54.382;9.708;2022-09-02T15:59:21;0.80;;;0.63;;
60859;SDS011;46694;54.382;9.708;2022-09-02T16:02:01;1.33;;;0.73;;
60859;SDS011;46694;54.382;9.708;2022-09-02T16:04:41;5.90;;;0.60;;
60859;SDS011;46694;54.382;9.708;2022-09-02T16:07:22;2.90;;;0.60;;
60859;SDS011;46694;54.382;9.708;2022-09-02T16:10:02;2.40;;;0.65;;
60859;SDS011;46694;54.382;9.708;2022-09-02T16:12:42;5.80;;;0.77;;
60859;SDS011;46694;54.382;9.708;2022-09-02T16:15:22;1.27;;;0.73;;
60859;SDS011;46694;54.382;9.708;2022-09-02T16:18:01;1.00;;;0.70;;
60859;SDS011;46694;54.382;9.708;2022-09-02T16:20:41;5.03;;;0.93;;
60859;SDS011;46694;54.382;9.708;2022-09-02T16:23:21;0.70;;;0.60;;
60859;SDS011;46694;54.382;9.708;2022-09-02T16:26:14;3.67;;;0.80;;
60859;SDS011;46694;54.382;9.708;2022-09-02T16:29:03;1.20;;;0.50;;
60859;SDS011;46694;54.382;9.708;2022-09-02T16:31:46;1.00;;;0.50;;
60859;SDS011;46694;54.382;9.708;2022-09-02T16:34:26;0.70;;;0.70;;
60859;SDS011;46694;54.382;9.708;2022-09-02T16:37:06;2.43;;;0.50;;
60859;SDS011;46694;54.382;9.708;2022-09-02T16:39:46;3.23;;;0.70;;
60859;SDS011;46694;54.382;9.708;2022-09-02T16:42:25;0.80;;;0.60;;
60859;SDS011;46694;54.382;9.708;2022-09-02T16:45:05;2.27;;;0.60;;
60859;SDS011;46694;54.382;9.708;2022-09-02T16:47:45;1.77;;;0.90;;
60859;SDS011;46694;54.382;9.708;2022-09-02T16:50:25;7.90;;;0.80;;
60859;SDS011;46694;54.382;9.708;2022-09-02T16:53:05;0.87;;;0.70;;
60859;SDS011;46694;54.382;9.708;2022-09-02T16:55:44;1.40;;;0.90;;
60859;SDS011;46694;54.382;9.708;2022-09-02T16:58:25;3.23;;;0.50;;
60859;SDS011;46694;54.382;9.708;2022-09-02T17:01:08;1.20;;;0.70;;
60859;SDS011;46694;54.382;9.708;2022-09-02T17:03:49;2.00;;;0.70;;
60859;SDS011;46694;54.382;9.708;2022-09-02T17:06:29;5.83;;;0.60;;
60859;SDS011;46694;54.382;9.708;2022-09-02T17:09:09;0.73;;;0.73;;
60859;SDS011;46694;54.382;9.708;2022-09-02T17:11:49;2.83;;;0.63;;
60859;SDS011;46694;54.382;9.708;2022-09-02T17:14:29;2.70;;;0.80;;
60859;SDS011;46694;54.382;9.708;2022-09-02T17:17:09;4.33;;;0.83;;
60859;SDS011;46694;54.382;9.708;2022-09-02T17:19:52;1.87;;;0.50;;
60859;SDS011;46694;54.382;9.708;2022-09-02T17:22:32;1.23;;;0.60;;
60859;SDS011;46694;54.382;9.708;2022-09-02T17:25:12;0.93;;;0.60;;
60859;SDS011;46694;54.382;9.708;2022-09-02T17:27:52;1.67;;;0.60;;
60859;SDS011;46694;54.382;9.708;2022-09-02T17:30:31;0.97;;;0.57;;
60859;SDS011;46694;54.382;9.708;2022-09-02T17:33:11;3.93;;;0.83;;
60859;SDS011;46694;54.382;9.708;2022-09-02T17:35:54;2.03;;;0.67;;
60859;SDS011;46694;54.382;9.708;2022-09-02T17:38:35;3.93;;;0.60;;
60859;SDS011;46694;54.382;9.708;2022-09-02T17:41:14;3.10;;;0.80;;
60859;SDS011;46694;54.382;9.708;2022-09-02T17:44:12;3.70;;;1.00;;
60859;SDS011;46694;54.382;9.708;2022-09-02T17:46:53;3.73;;;0.90;;
60859;SDS011;46694;54.382;9.708;2022-09-02T17:49:36;1.87;;;0.80;;
60859;SDS011;46694;54.382;9.708;2022-09-02T17:52:17;3.73;;;0.70;;
60859;SDS011;46694;54.382;9.708;2022-09-02T17:55:00;1.13;;;0.40;;
60859;SDS011;46694;54.382;9.708;2022-09-02T17:57:47;1.23;;;0.50;;
60859;SDS011;46694;54.382;9.708;2022-09-02T18:00:52;1.37;;;1.03;;
60859;SDS011;46694;54.382;9.708;2022-09-02T18:03:39;1.80;;;0.90;;
60859;SDS011;46694;54.382;9.708;2022-09-02T18:06:36;1.50;;;0.97;;
60859;SDS011;46694;54.382;9.708;2022-09-02T18:09:20;3.90;;;0.90;;
60859;SDS011;46694;54.382;9.708;2022-09-02T18:12:01;3.97;;;0.80;;
60859;SDS011;46694;54.382;9.708;2022-09-02T18:14:44;7.63;;;0.90;;
60859;SDS011;46694;54.382;9.708;2022-09-02T18:17:33;3.23;;;0.67;;
60859;SDS011;46694;54.382;9.708;2022-09-02T18:44:40;2.07;;;0.80;;
60859;SDS011;46694;54.382;9.708;2022-09-02T18:47:28;3.63;;;1.33;;
60859;SDS011;46694;54.382;9.708;2022-09-02T18:50:24;1.77;;;0.63;;
60859;SDS011;46694;54.382;9.708;2022-09-02T18:54:03;9.73;;;1.20;;
60859;SDS011;46694;54.382;9.708;2022-09-02T18:56:30;2.23;;;0.80;;
60859;SDS011;46694;54.382;9.708;2022-09-02T18:59:14;3.93;;;1.50;;
60859;SDS011;46694;54.382;9.708;2022-09-02T19:02:02;11.43;;;0.93;;
60859;SDS011;46694;54.382;9.708;2022-09-02T19:04:56;3.30;;;0.80;;
60859;SDS011;46694;54.382;9.708;2022-09-02T19:07:38;3.77;;;0.97;;
60859;SDS011;46694;54.382;9.708;2022-09-02T19:10:38;4.60;;;0.80;;